createdAt,value
2018-12-18T00:01:48.959Z,29.90
2018-12-18T00:05:52.154Z,33.70
2018-12-18T00:09:55.069Z,31.30
2018-12-18T00:13:57.974Z,35.93
2018-12-18T00:18:01.143Z,37.07
2018-12-18T00:22:04.894Z,40.13
2018-12-18T00:26:08.150Z,37.17
2018-12-18T00:30:11.127Z,39.90
2018-12-18T00:34:14.319Z,35.70
2018-12-18T00:38:17.438Z,38.27
2018-12-18T00:42:20.330Z,37.17
2018-12-18T00:46:23.281Z,40.20
2018-12-18T00:50:26.399Z,38.87
2018-12-18T00:54:29.282Z,41.27
2018-12-18T00:58:32.446Z,38.40
2018-12-18T01:02:35.566Z,39.33
2018-12-18T01:06:38.549Z,38.97
2018-12-18T01:10:41.684Z,44.67
2018-12-18T01:14:44.709Z,41.37
2018-12-18T01:18:47.676Z,41.43
2018-12-18T01:22:50.573Z,43.67
2018-12-18T01:26:53.798Z,43.03
2018-12-18T01:30:56.717Z,37.67
2018-12-18T01:34:59.919Z,41.57
2018-12-18T01:39:03.158Z,41.87
2018-12-18T01:43:06.137Z,42.17
2018-12-18T01:47:09.453Z,42.43
2018-12-18T01:51:12.414Z,44.23
2018-12-18T01:55:15.726Z,40.73
2018-12-18T01:59:18.677Z,43.90
2018-12-18T02:03:21.572Z,41.83
2018-12-18T02:07:24.458Z,41.00
2018-12-18T02:11:27.710Z,44.50
2018-12-18T02:15:30.665Z,42.10
2018-12-18T02:19:33.541Z,39.60
2018-12-18T02:23:36.618Z,41.80
2018-12-18T02:27:39.493Z,42.17
2018-12-18T02:31:42.387Z,38.90
2018-12-18T02:35:45.269Z,42.40
2018-12-18T02:39:48.142Z,39.00
2018-12-18T02:43:51.225Z,40.03
2018-12-18T02:47:54.397Z,39.07
2018-12-18T02:51:57.518Z,41.37
2018-12-18T02:56:00.389Z,42.07
2018-12-18T03:00:03.926Z,39.40
2018-12-18T03:04:06.881Z,38.03
2018-12-18T03:08:09.797Z,38.80
2018-12-18T03:12:12.664Z,40.40
2018-12-18T03:16:15.605Z,38.93
2018-12-18T03:20:18.472Z,38.80
2018-12-18T03:24:21.422Z,35.90
2018-12-18T03:28:24.360Z,38.30
2018-12-18T03:32:32.315Z,35.07
2018-12-18T03:36:35.470Z,36.83
2018-12-18T03:40:38.427Z,37.03
2018-12-18T03:44:41.578Z,39.50
2018-12-18T03:48:44.669Z,37.20
2018-12-18T03:52:47.614Z,36.50
2018-12-18T03:56:50.493Z,36.60
2018-12-18T04:00:53.695Z,31.93
2018-12-18T04:04:56.574Z,36.00
2018-12-18T04:08:59.759Z,33.67
2018-12-18T04:13:02.713Z,32.03
2018-12-18T04:17:05.708Z,31.90
2018-12-18T04:21:08.651Z,35.60
2018-12-18T04:25:11.743Z,31.90
2018-12-18T04:29:14.791Z,32.00
2018-12-18T04:33:17.875Z,30.27
2018-12-18T04:37:20.970Z,32.43
2018-12-18T04:41:23.973Z,32.07
2018-12-18T04:45:27.070Z,32.40
2018-12-18T04:49:29.937Z,32.53
2018-12-18T04:53:32.810Z,31.37
2018-12-18T04:57:35.690Z,30.87
2018-12-18T05:01:38.669Z,29.80
2018-12-18T05:05:41.749Z,31.57
2018-12-18T05:09:45.162Z,29.70
2018-12-18T05:13:48.245Z,27.13
2018-12-18T05:17:51.122Z,27.77
2018-12-18T05:21:54.202Z,29.30
2018-12-18T05:25:57.287Z,31.27
2018-12-18T05:30:00.160Z,28.10
2018-12-18T05:34:03.061Z,27.13
2018-12-18T05:38:06.001Z,27.70
2018-12-18T05:42:09.179Z,24.10
2018-12-18T05:46:12.128Z,25.27
2018-12-18T05:50:15.009Z,23.47
2018-12-18T05:54:18.086Z,21.87
2018-12-18T05:58:20.964Z,22.20
2018-12-18T06:02:24.029Z,24.33
2018-12-18T06:06:27.121Z,21.50
2018-12-18T06:10:30.001Z,23.47
2018-12-18T06:14:33.093Z,26.00
2018-12-18T06:18:35.948Z,22.77
2018-12-18T06:22:40.144Z,22.37
2018-12-18T06:26:43.077Z,21.77
2018-12-18T06:30:46.177Z,20.30
2018-12-18T06:34:49.325Z,20.63
2018-12-18T06:38:52.780Z,18.07
2018-12-18T06:42:55.846Z,17.83
2018-12-18T06:46:59.014Z,17.07
2018-12-18T06:51:01.966Z,16.50
2018-12-18T06:55:05.288Z,17.07
2018-12-18T06:59:08.162Z,16.43
2018-12-18T07:03:11.033Z,14.30
2018-12-18T07:07:14.181Z,15.90
2018-12-18T07:11:17.457Z,14.93
2018-12-18T07:15:20.325Z,17.30
2018-12-18T07:19:23.477Z,19.03
2018-12-18T07:23:26.656Z,18.87
2018-12-18T07:27:29.741Z,20.33
2018-12-18T07:31:32.895Z,18.33
2018-12-18T07:35:35.841Z,20.03
2018-12-18T07:39:38.745Z,19.67
2018-12-18T07:43:41.693Z,18.13
2018-12-18T07:47:44.866Z,20.50
2018-12-18T07:51:47.813Z,19.43
2018-12-18T07:55:50.949Z,18.77
2018-12-18T07:59:53.825Z,20.03
2018-12-18T08:03:56.717Z,20.47
2018-12-18T08:07:59.858Z,19.70
2018-12-18T08:12:02.885Z,20.73
2018-12-18T08:16:05.863Z,18.20
2018-12-18T08:20:09.139Z,20.53
2018-12-18T08:24:12.097Z,18.90
2018-12-18T08:28:14.989Z,16.57
2018-12-18T08:32:17.881Z,17.60
2018-12-18T08:36:21.002Z,16.67
2018-12-18T08:40:24.035Z,17.33
2018-12-18T08:44:26.997Z,16.17
2018-12-18T08:48:29.903Z,15.47
2018-12-18T08:52:32.822Z,19.37
2018-12-18T08:56:35.919Z,16.60
2018-12-18T09:00:39.042Z,13.43
2018-12-18T09:04:41.941Z,14.33
2018-12-18T09:08:44.825Z,15.40
2018-12-18T09:12:47.747Z,14.13
2018-12-18T09:16:57.370Z,15.67
2018-12-18T09:21:00.525Z,15.43
2018-12-18T09:25:03.959Z,14.20
2018-12-18T09:29:06.939Z,14.60
2018-12-18T09:33:10.220Z,15.23
2018-12-18T09:37:13.129Z,15.40
2018-12-18T09:41:24.072Z,16.07
2018-12-18T09:45:28.298Z,13.33
2018-12-18T09:49:31.208Z,14.27
2018-12-18T09:53:34.183Z,15.70
2018-12-18T09:57:42.867Z,14.47
2018-12-18T10:01:45.829Z,16.63
2018-12-18T10:05:48.717Z,15.27
2018-12-18T10:09:51.816Z,16.87
2018-12-18T10:13:54.718Z,14.00
2018-12-18T10:17:57.853Z,15.93
2018-12-18T10:22:00.752Z,15.60
2018-12-18T10:26:03.729Z,16.00
2018-12-18T10:30:07.082Z,15.30
2018-12-18T10:34:09.993Z,17.07
2018-12-18T10:38:13.165Z,17.53
2018-12-18T10:46:49.058Z,15.00
2018-12-18T10:50:52.105Z,14.90
2018-12-18T10:54:55.290Z,14.07
2018-12-18T10:58:58.249Z,14.10
2018-12-18T11:03:01.376Z,12.00
2018-12-18T11:07:05.738Z,13.20
2018-12-18T11:11:08.986Z,12.93
2018-12-18T11:15:11.974Z,12.77
2018-12-18T11:19:15.090Z,12.70
2018-12-18T11:23:19.709Z,14.40
2018-12-18T11:27:22.811Z,11.67
2018-12-18T11:31:25.777Z,11.00
2018-12-18T11:35:28.796Z,10.37
2018-12-18T11:39:31.882Z,11.87
2018-12-18T11:43:34.858Z,11.80
2018-12-18T11:47:38.055Z,10.30
2018-12-18T11:51:41.038Z,11.90
2018-12-18T11:55:44.201Z,10.20
2018-12-18T11:59:47.138Z,9.17
2018-12-18T12:03:50.030Z,9.40
2018-12-18T12:07:53.011Z,9.40
2018-12-18T12:11:55.952Z,8.63
2018-12-18T12:15:59.302Z,8.47
2018-12-18T12:20:02.253Z,9.13
2018-12-18T12:24:05.366Z,7.97
2018-12-18T12:28:08.254Z,7.83
2018-12-18T12:32:11.242Z,9.40
2018-12-18T12:36:14.395Z,6.80
2018-12-18T12:40:17.332Z,7.37
2018-12-18T12:44:20.217Z,7.20
2018-12-18T12:48:27.623Z,8.87
2018-12-18T12:52:30.537Z,8.83
2018-12-18T12:56:33.659Z,8.17
2018-12-18T13:00:36.830Z,8.00
2018-12-18T13:04:39.714Z,8.37
2018-12-18T13:08:42.597Z,10.20
2018-12-18T13:12:45.798Z,7.97
2018-12-18T13:16:48.693Z,8.30
2018-12-18T13:20:51.820Z,7.80
2018-12-18T13:24:54.962Z,7.40
2018-12-18T13:28:57.837Z,7.10
2018-12-18T13:33:00.955Z,7.97
2018-12-18T13:37:03.817Z,7.90
2018-12-18T13:41:06.717Z,8.97
2018-12-18T13:45:09.627Z,8.30
2018-12-18T13:49:12.569Z,7.30
2018-12-18T13:53:15.668Z,7.30
2018-12-18T13:57:18.559Z,8.00
2018-12-18T14:01:21.816Z,7.10
2018-12-18T14:05:25.718Z,7.17
2018-12-18T14:09:29.053Z,7.50
2018-12-18T14:13:31.938Z,6.53
2018-12-18T14:17:35.175Z,7.40
2018-12-18T14:21:38.411Z,7.30
2018-12-18T14:25:41.399Z,6.90
2018-12-18T14:29:44.498Z,8.33
2018-12-18T14:33:47.470Z,7.93
2018-12-18T14:37:50.442Z,7.63
2018-12-18T14:41:53.402Z,7.90
2018-12-18T14:45:56.457Z,7.57
2018-12-18T14:49:59.462Z,7.63
2018-12-18T14:54:02.665Z,8.27
2018-12-18T14:58:05.600Z,7.60
2018-12-18T15:02:08.486Z,7.40
2018-12-18T15:06:11.627Z,7.57
2018-12-18T15:10:15.125Z,6.80
2018-12-18T15:14:18.367Z,7.57
2018-12-18T15:18:21.613Z,8.40
2018-12-18T15:22:24.876Z,8.17
2018-12-18T15:26:27.961Z,7.07
2018-12-18T15:30:31.118Z,6.33
2018-12-18T15:34:34.446Z,8.90
2018-12-18T15:38:37.474Z,7.90
2018-12-18T15:42:40.374Z,6.97
2018-12-18T15:46:43.526Z,7.33
2018-12-18T15:50:47.176Z,7.00
2018-12-18T15:54:50.212Z,6.90
2018-12-18T15:58:53.521Z,8.10
2018-12-18T16:02:56.467Z,6.10
2018-12-18T16:06:59.630Z,7.00
2018-12-18T16:11:02.661Z,6.37
2018-12-18T16:15:07.029Z,7.00
2018-12-18T16:19:10.202Z,6.60
2018-12-18T16:23:13.198Z,6.20
2018-12-18T16:27:16.197Z,6.63
2018-12-18T16:31:19.382Z,7.20
2018-12-18T16:35:22.550Z,6.30
2018-12-18T16:39:25.572Z,6.43
2018-12-18T16:43:28.871Z,5.80
2018-12-18T16:47:31.819Z,6.23
2018-12-18T16:51:35.009Z,5.90
2018-12-18T16:55:39.352Z,6.27
2018-12-18T16:59:42.365Z,5.50
2018-12-18T17:03:45.332Z,5.67
2018-12-18T17:07:48.537Z,5.83
2018-12-18T17:11:51.541Z,7.20
2018-12-18T17:15:54.771Z,5.20
2018-12-18T17:19:57.743Z,5.87
2018-12-18T17:24:00.725Z,5.10
2018-12-18T17:28:03.647Z,4.60
2018-12-18T17:32:06.816Z,4.90
2018-12-18T17:36:10.054Z,4.47
2018-12-18T17:40:13.224Z,4.80
2018-12-18T17:44:16.085Z,4.30
2018-12-18T17:48:19.113Z,4.47
2018-12-18T17:52:22.061Z,5.23
2018-12-18T17:56:25.021Z,5.27
2018-12-18T18:00:28.285Z,4.33
2018-12-18T18:04:31.177Z,4.43
2018-12-18T18:08:34.128Z,4.40
2018-12-18T18:12:37.241Z,4.30
2018-12-18T18:16:40.161Z,4.33
2018-12-18T18:20:43.385Z,3.97
2018-12-18T18:24:46.321Z,4.50
2018-12-18T18:28:49.237Z,4.03
2018-12-18T18:32:52.127Z,3.93
2018-12-18T18:36:54.985Z,4.97
2018-12-18T18:40:57.925Z,4.77
2018-12-18T18:45:00.797Z,4.57
2018-12-18T18:49:04.315Z,5.10
2018-12-18T18:53:07.234Z,3.80
2018-12-18T18:57:10.234Z,4.23
2018-12-18T19:01:13.503Z,4.47
2018-12-18T19:05:16.441Z,5.83
2018-12-18T19:09:19.624Z,4.70
2018-12-18T19:13:22.587Z,7.03
2018-12-18T19:17:25.646Z,5.07
2018-12-18T19:21:28.897Z,4.53
2018-12-18T19:25:32.183Z,4.40
2018-12-18T19:29:35.208Z,4.00
2018-12-18T19:33:38.128Z,4.40
2018-12-18T19:37:41.096Z,4.60
2018-12-18T19:41:44.274Z,4.50
2018-12-18T19:45:47.241Z,3.90
2018-12-18T19:49:50.191Z,3.80
2018-12-18T19:53:53.237Z,4.20
2018-12-18T19:57:56.513Z,3.70
2018-12-18T20:01:59.488Z,4.40
2018-12-18T20:06:02.600Z,4.30
2018-12-18T20:10:05.591Z,4.57
2018-12-18T20:14:08.482Z,4.87
2018-12-18T20:18:11.373Z,5.10
2018-12-18T20:22:14.625Z,5.17
2018-12-18T20:26:17.678Z,4.77
2018-12-18T20:30:20.841Z,4.13
2018-12-18T20:34:23.941Z,5.40
2018-12-18T20:38:26.821Z,5.43
2018-12-18T20:42:29.721Z,5.47
2018-12-18T20:46:32.994Z,5.00
2018-12-18T20:50:35.888Z,5.57
2018-12-18T20:54:38.763Z,4.70
2018-12-18T20:58:41.894Z,5.17
2018-12-18T21:02:45.083Z,5.80
2018-12-18T21:06:48.126Z,4.97
2018-12-18T21:10:51.280Z,5.47
2018-12-18T21:15:00.535Z,5.33
2018-12-18T21:18:59.027Z,4.80
2018-12-18T21:23:02.183Z,5.70
2018-12-18T21:27:05.206Z,6.30
2018-12-18T21:31:08.453Z,5.53
2018-12-18T21:35:11.417Z,6.80
2018-12-18T21:39:14.318Z,6.17
2018-12-18T21:43:17.411Z,6.50
2018-12-18T21:47:20.301Z,6.50
2018-12-18T21:51:23.518Z,6.27
2018-12-18T21:55:26.393Z,7.93
2018-12-18T21:59:29.329Z,7.30
2018-12-18T22:03:32.202Z,6.57
2018-12-18T22:07:35.081Z,9.43
2018-12-18T22:11:38.165Z,7.93
2018-12-18T22:15:41.049Z,8.07
2018-12-18T22:19:43.942Z,7.17
2018-12-18T22:23:46.938Z,8.20
2018-12-18T22:27:50.094Z,8.33
2018-12-18T22:31:53.005Z,6.53
2018-12-18T22:35:55.965Z,8.07
2018-12-18T22:39:59.050Z,8.83
2018-12-18T22:44:01.937Z,7.90
2018-12-18T22:48:04.884Z,8.73
2018-12-18T22:52:07.829Z,7.47
2018-12-18T22:56:10.732Z,7.57
2018-12-18T23:00:18.724Z,7.40
2018-12-18T23:04:21.605Z,7.17
2018-12-18T23:08:24.514Z,8.13
2018-12-18T23:12:27.480Z,6.97
2018-12-18T23:16:30.460Z,7.57
2018-12-18T23:20:33.527Z,7.37
2018-12-18T23:24:36.626Z,6.90
2018-12-18T23:28:39.720Z,7.30
2018-12-18T23:32:42.669Z,6.83
2018-12-18T23:36:45.797Z,7.07
2018-12-18T23:40:48.760Z,6.70
2018-12-18T23:44:51.625Z,5.67
2018-12-18T23:48:54.521Z,6.33
2018-12-18T23:52:57.480Z,7.70
2018-12-18T23:57:00.355Z,6.03
